Time;durP1;ratioP1;P1;durP2;ratioP2;P2;SDS_P1;SDS_P2;PMS_P1;PMS_P2;Temp;Humidity;BMP_temperature;BMP_pressure;BME280_temperature;BME280_humidity;BME280_pressure;Samples;Min_cycle;Max_cycle;Signal;HPM_P1;HPM_P2
2021/12/12 00:01:28;;;;;;;23.10;17.27;;;0.00;67.80;;;;;;5033750;28;20548;-54
2021/12/12 00:04:09;;;;;;;24.07;17.60;;;0.00;62.90;;;;;;5029952;28;20466;-53
2021/12/12 00:06:37;;;;;;;20.83;16.37;;;0.00;60.60;;;;;;5027665;28;20531;-53
2021/12/12 00:09:08;;;;;;;20.00;15.70;;;0.10;65.40;;;;;;5030878;28;20494;-52
2021/12/12 00:11:37;;;;;;;17.03;14.60;;;0.10;63.70;;;;;;5028459;28;20574;-52
2021/12/12 00:14:09;;;;;;;21.43;17.17;;;0.20;68.30;;;;;;5028877;28;20466;-54
2021/12/12 00:16:36;;;;;;;23.73;17.60;;;0.30;77.30;;;;;;5025541;28;20549;-53
2021/12/12 00:19:04;;;;;;;19.97;16.40;;;0.30;92.50;;;;;;5027970;28;20550;-53
2021/12/12 00:21:33;;;;;;;24.33;17.50;;;0.30;99.00;;;;;;5032359;28;20878;-52
2021/12/12 00:24:00;;;;;;;23.17;17.73;;;0.30;96.90;;;;;;5031888;28;20558;-52
2021/12/12 00:26:27;;;;;;;24.87;16.43;;;0.30;98.10;;;;;;5031834;28;20577;-51
2021/12/12 00:28:56;;;;;;;22.03;16.30;;;0.30;99.90;;;;;;5032047;28;20499;-52
2021/12/12 00:31:24;;;;;;;23.37;17.70;;;0.30;99.90;;;;;;5028562;28;20498;-51
2021/12/12 00:33:54;;;;;;;20.60;16.40;;;0.30;94.40;;;;;;5027880;28;20498;-52
2021/12/12 00:36:21;;;;;;;28.60;18.93;;;0.30;99.10;;;;;;5030684;28;20565;-54
2021/12/12 00:38:51;;;;;;;21.60;16.50;;;0.30;99.90;;;;;;5029670;28;20550;-52
2021/12/12 00:41:25;;;;;;;20.20;16.50;;;0.30;99.90;;;;;;5029546;28;20494;-53
2021/12/12 00:43:52;;;;;;;22.20;17.40;;;0.30;99.20;;;;;;5026361;28;20549;-52
2021/12/12 00:46:23;;;;;;;23.67;17.00;;;0.30;99.90;;;;;;5032573;28;20517;-52
2021/12/12 00:48:50;;;;;;;21.20;17.07;;;0.30;99.90;;;;;;5033313;28;20483;-54
2021/12/12 00:51:19;;;;;;;20.27;16.13;;;0.30;97.80;;;;;;5033162;28;20918;-52
2021/12/12 00:53:47;;;;;;;24.20;17.00;;;0.30;94.60;;;;;;5030911;28;20521;-53
2021/12/12 00:56:14;;;;;;;21.20;15.67;;;0.40;97.20;;;;;;5019047;28;20620;-53
2021/12/12 00:58:41;;;;;;;24.50;16.50;;;0.30;99.90;;;;;;5032341;28;20454;-53
2021/12/12 01:01:12;;;;;;;22.57;17.47;;;0.30;99.90;;;;;;5019949;28;20479;-54
2021/12/12 01:03:47;;;;;;;20.83;17.03;;;0.30;99.90;;;;;;5025642;28;20550;-54
2021/12/12 01:06:14;;;;;;;20.37;16.10;;;0.30;99.90;;;;;;5032810;28;20524;-52
2021/12/12 01:08:43;;;;;;;20.40;16.23;;;0.30;99.90;;;;;;5029018;28;20502;-52
2021/12/12 01:11:14;;;;;;;25.70;18.50;;;0.20;99.90;;;;;;5031869;28;20585;-51
2021/12/12 01:13:42;;;;;;;27.73;19.33;;;0.20;99.90;;;;;;5020174;28;20557;-54
2021/12/12 01:16:12;;;;;;;22.20;16.90;;;0.20;99.90;;;;;;5031860;28;20581;-52
2021/12/12 01:18:45;;;;;;;27.93;18.43;;;0.10;99.90;;;;;;5030657;28;20501;-52
2021/12/12 01:21:15;;;;;;;22.70;18.63;;;0.10;95.60;;;;;;5030232;28;20494;-52
2021/12/12 01:23:45;;;;;;;22.13;17.93;;;0.10;92.00;;;;;;5031199;28;20536;-52
2021/12/12 01:26:12;;;;;;;23.50;18.00;;;0.20;84.20;;;;;;5029999;28;20513;-53
2021/12/12 01:28:42;;;;;;;27.97;18.10;;;0.20;85.30;;;;;;5022745;28;20497;-53
2021/12/12 01:31:12;;;;;;;26.47;17.23;;;0.30;73.60;;;;;;5029375;28;20465;-52
2021/12/12 01:33:41;;;;;;;24.27;18.50;;;0.30;76.80;;;;;;5030546;28;20882;-53
2021/12/12 01:36:12;;;;;;;25.20;19.57;;;0.40;75.40;;;;;;5030253;28;20494;-53
2021/12/12 01:38:55;;;;;;;23.30;18.47;;;0.50;78.50;;;;;;5029210;28;20498;-53
2021/12/12 01:41:27;;;;;;;25.80;20.10;;;0.50;81.00;;;;;;5029340;28;20461;-51
2021/12/12 01:43:58;;;;;;;24.53;18.80;;;0.50;80.90;;;;;;5029266;28;21058;-52
2021/12/12 01:46:29;;;;;;;26.80;19.60;;;0.60;85.50;;;;;;5031220;28;20918;-54
2021/12/12 01:49:00;;;;;;;25.93;18.20;;;0.60;86.20;;;;;;5026202;28;20459;-53
2021/12/12 01:51:29;;;;;;;25.80;19.63;;;0.60;90.30;;;;;;5030135;28;20554;-52
2021/12/12 01:54:00;;;;;;;29.20;20.30;;;0.70;99.90;;;;;;5027858;28;20566;-53
2021/12/12 01:56:30;;;;;;;24.17;18.47;;;0.60;99.90;;;;;;5030690;28;20494;-52
2021/12/12 01:59:01;;;;;;;23.10;18.47;;;0.70;99.90;;;;;;5031059;28;21020;-52
2021/12/12 02:01:32;;;;;;;22.80;19.03;;;0.70;99.90;;;;;;5027107;28;20459;-52
2021/12/12 02:04:05;;;;;;;24.97;19.30;;;0.70;99.90;;;;;;5028297;28;20574;-52
2021/12/12 02:06:33;;;;;;;22.13;18.70;;;0.70;99.90;;;;;;5029587;28;20550;-52
2021/12/12 02:09:01;;;;;;;22.67;18.80;;;0.70;99.90;;;;;;5028996;28;20964;-53
2021/12/12 02:11:31;;;;;;;25.33;19.80;;;0.70;99.90;;;;;;5029949;28;20490;-53
2021/12/12 02:14:02;;;;;;;24.77;20.20;;;0.70;88.20;;;;;;5027391;28;20459;-53
2021/12/12 02:16:30;;;;;;;23.47;18.53;;;0.70;95.70;;;;;;5030556;28;20536;-53
2021/12/12 02:18:59;;;;;;;24.90;17.97;;;0.60;99.90;;;;;;5027985;28;20562;-53
2021/12/12 02:21:34;;;;;;;22.17;17.87;;;0.50;97.10;;;;;;5025868;28;20545;-53
2021/12/12 02:35:05;;;;;;;21.33;18.20;;;0.60;83.60;;;;;;5023156;28;20472;-52
2021/12/12 02:35:42;;;;;;;22.07;17.70;;;0.50;76.00;;;;;;5030911;28;20533;-52
2021/12/12 02:38:10;;;;;;;22.27;18.93;;;0.60;55.20;;;;;;5027037;28;20454;-52
2021/12/12 02:40:42;;;;;;;21.77;17.37;;;0.60;58.20;;;;;;5026680;28;20482;-52
2021/12/12 02:43:11;;;;;;;24.73;19.03;;;0.60;64.10;;;;;;5021884;28;20455;-53
2021/12/12 02:45:38;;;;;;;24.23;18.70;;;0.60;66.40;;;;;;5023413;28;20471;-53
2021/12/12 02:48:09;;;;;;;26.60;18.80;;;0.60;68.00;;;;;;5029351;28;20469;-53
2021/12/12 02:50:40;;;;;;;22.33;17.90;;;0.60;77.00;;;;;;5024467;28;20465;-53
2021/12/12 02:53:13;;;;;;;28.93;19.37;;;0.60;92.20;;;;;;5030950;28;20466;-52
2021/12/12 02:55:44;;;;;;;24.37;19.27;;;0.60;91.20;;;;;;5030769;28;20518;-52
2021/12/12 02:58:14;;;;;;;21.70;17.90;;;0.60;91.60;;;;;;5029723;28;20498;-52
2021/12/12 03:00:44;;;;;;;22.73;17.87;;;0.60;88.80;;;;;;5031396;28;20459;-53
2021/12/12 03:03:12;;;;;;;24.13;17.53;;;0.60;80.90;;;;;;5027329;28;20459;-52
2021/12/12 03:05:43;;;;;;;21.17;17.00;;;0.60;87.00;;;;;;5027178;28;20573;-53
2021/12/12 03:08:10;;;;;;;23.77;18.17;;;0.60;92.80;;;;;;5030082;28;20912;-52
2021/12/12 03:10:48;;;;;;;22.90;17.00;;;0.50;93.70;;;;;;5022241;28;20517;-52
2021/12/12 03:13:15;;;;;;;23.97;18.70;;;0.50;87.70;;;;;;5025830;28;20497;-53
2021/12/12 03:15:44;;;;;;;24.50;18.50;;;0.60;86.30;;;;;;5021384;28;21004;-53
2021/12/12 03:18:13;;;;;;;23.37;18.40;;;0.50;86.00;;;;;;5026983;28;20494;-53
2021/12/12 03:20:42;;;;;;;28.20;19.10;;;0.60;86.80;;;;;;5023655;28;20486;-51
2021/12/12 03:23:15;;;;;;;23.53;18.30;;;0.60;95.00;;;;;;5029341;28;20512;-54
2021/12/12 03:25:44;;;;;;;24.50;17.07;;;0.60;97.60;;;;;;5022414;28;20482;-52
2021/12/12 03:28:16;;;;;;;23.77;18.53;;;0.60;92.90;;;;;;5030211;28;20494;-54
2021/12/12 03:30:46;;;;;;;23.00;17.67;;;0.60;91.50;;;;;;5023582;28;20474;-52
2021/12/12 03:33:13;;;;;;;25.40;19.00;;;0.60;94.50;;;;;;5019122;28;20494;-52
2021/12/12 03:35:40;;;;;;;22.20;16.67;;;0.60;99.90;;;;;;5025836;28;20930;-54
2021/12/12 03:38:07;;;;;;;26.73;18.73;;;0.50;99.90;;;;;;5032440;28;20546;-53
2021/12/12 03:40:37;;;;;;;20.37;17.90;;;0.60;99.90;;;;;;5028161;28;20545;-53
2021/12/12 03:43:07;;;;;;;23.13;18.23;;;0.60;99.90;;;;;;5031385;28;20493;-53
2021/12/12 03:45:35;;;;;;;21.53;17.63;;;0.50;99.90;;;;;;5028219;28;20511;-54
2021/12/12 03:48:07;;;;;;;22.30;18.20;;;0.50;99.90;;;;;;5030958;28;20561;-54
2021/12/12 03:50:36;;;;;;;20.80;17.33;;;0.50;99.90;;;;;;5030885;28;20486;-53
2021/12/12 03:53:03;;;;;;;23.67;18.03;;;0.40;99.90;;;;;;5030591;28;20525;-52
2021/12/12 03:55:31;;;;;;;24.17;17.27;;;0.40;99.90;;;;;;5032505;28;20522;-52
2021/12/12 03:57:59;;;;;;;21.13;17.20;;;0.40;99.30;;;;;;5032466;28;20458;-52
2021/12/12 04:00:29;;;;;;;23.20;17.87;;;0.30;98.00;;;;;;5030535;28;20506;-53
2021/12/12 04:02:57;;;;;;;21.73;17.40;;;0.40;97.90;;;;;;5030709;28;20486;-52
2021/12/12 04:05:23;;;;;;;21.90;17.97;;;0.30;94.90;;;;;;5030401;28;20728;-53
2021/12/12 04:07:50;;;;;;;20.00;16.80;;;0.30;94.00;;;;;;5029758;28;20487;-53
2021/12/12 04:10:20;;;;;;;23.30;18.13;;;0.30;93.20;;;;;;5022413;28;20529;-54
2021/12/12 04:13:03;;;;;;;18.63;16.10;;;0.30;90.20;;;;;;5028755;28;20885;-52
2021/12/12 04:15:31;;;;;;;26.20;18.70;;;0.30;82.70;;;;;;5027747;28;21077;-54
2021/12/12 04:17:58;;;;;;;21.00;17.37;;;0.30;86.20;;;;;;5033394;28;20542;-54
2021/12/12 04:20:27;;;;;;;24.70;17.90;;;0.30;84.50;;;;;;5028834;28;20486;-53
2021/12/12 04:22:54;;;;;;;21.97;18.67;;;0.30;82.60;;;;;;5026362;28;20541;-52
2021/12/12 04:25:22;;;;;;;23.93;18.03;;;0.30;86.80;;;;;;5031409;28;20563;-52
2021/12/12 04:27:50;;;;;;;22.80;17.40;;;0.30;82.50;;;;;;5030075;28;20469;-52
2021/12/12 04:30:17;;;;;;;21.10;16.60;;;0.30;84.80;;;;;;5027422;28;20542;-52
2021/12/12 04:32:47;;;;;;;21.27;16.50;;;0.30;83.70;;;;;;5031838;28;20554;-52
2021/12/12 04:35:17;;;;;;;25.67;18.33;;;0.30;85.40;;;;;;5030123;28;20572;-52
2021/12/12 04:37:45;;;;;;;20.30;17.50;;;0.30;85.00;;;;;;5029517;28;20466;-52
2021/12/12 04:40:15;;;;;;;26.43;17.13;;;0.40;93.20;;;;;;5030082;28;20520;-54
2021/12/12 04:42:44;;;;;;;21.67;16.57;;;0.40;91.40;;;;;;5032263;28;20462;-54
2021/12/12 04:45:20;;;;;;;22.20;17.63;;;0.40;87.10;;;;;;5028288;28;20574;-52
2021/12/12 04:50:50;;;;;;;22.47;17.90;;;0.30;85.40;;;;;;5029010;28;20450;-53
2021/12/12 04:53:22;;;;;;;25.20;18.30;;;0.40;73.10;;;;;;5025854;28;20887;-52
2021/12/12 04:55:56;;;;;;;20.60;16.70;;;0.50;69.90;;;;;;5028086;28;21067;-49
2021/12/12 04:58:32;;;;;;;28.77;18.53;;;0.60;64.60;;;;;;5030243;28;20549;-50
2021/12/12 05:01:05;;;;;;;25.97;18.17;;;0.50;72.00;;;;;;5027970;28;21025;-48
2021/12/12 05:03:42;;;;;;;21.80;19.47;;;0.50;67.40;;;;;;5029169;28;20554;-50
2021/12/12 05:06:12;;;;;;;23.23;19.43;;;0.50;49.70;;;;;;5029485;28;20566;-50
2021/12/12 05:08:43;;;;;;;22.37;18.47;;;0.50;49.80;;;;;;5027063;28;20470;-49
2021/12/12 05:11:14;;;;;;;23.27;18.23;;;0.60;45.40;;;;;;5028041;28;21210;-49
2021/12/12 05:13:49;;;;;;;27.03;19.03;;;0.60;34.00;;;;;;5031420;28;20907;-50
2021/12/12 05:16:22;;;;;;;27.47;19.70;;;0.60;33.70;;;;;;5025104;28;20521;-49
2021/12/12 05:18:53;;;;;;;27.07;18.73;;;0.60;32.90;;;;;;5026433;28;20494;-49
2021/12/12 05:21:26;;;;;;;31.53;20.27;;;0.60;21.20;;;;;;5028570;28;20497;-49
2021/12/12 05:23:59;;;;;;;29.50;21.40;;;0.60;99.90;;;;;;5032309;28;20466;-49
2021/12/12 05:26:29;;;;;;;29.37;19.50;;;0.60;99.90;;;;;;5027668;28;20540;-49
2021/12/12 05:29:02;;;;;;;29.17;21.30;;;0.60;99.90;;;;;;5031929;28;20968;-49
2021/12/12 05:31:30;;;;;;;29.03;19.73;;;0.70;99.90;;;;;;5024253;28;21203;-49
2021/12/12 05:33:59;;;;;;;28.50;20.70;;;0.70;99.90;;;;;;5028738;28;20565;-50
2021/12/12 05:36:28;;;;;;;30.63;20.20;;;0.70;99.90;;;;;;5021009;28;20570;-49
2021/12/12 05:38:57;;;;;;;30.00;20.83;;;0.70;99.90;;;;;;5029962;28;20567;-50
2021/12/12 05:41:24;;;;;;;28.00;18.63;;;0.80;99.90;;;;;;5024733;28;20546;-49
2021/12/12 05:43:54;;;;;;;29.13;20.20;;;0.80;99.90;;;;;;5020269;28;20492;-50
2021/12/12 05:46:23;;;;;;;30.90;21.00;;;0.80;99.90;;;;;;5024963;28;20566;-49
2021/12/12 05:48:51;;;;;;;30.23;20.33;;;0.90;99.90;;;;;;5025942;28;20545;-49
2021/12/12 05:51:19;;;;;;;29.37;20.73;;;0.90;99.90;;;;;;5029718;28;20931;-50
2021/12/12 05:53:49;;;;;;;30.47;20.77;;;0.90;99.90;;;;;;5030402;28;20554;-50
2021/12/12 05:56:16;;;;;;;31.27;20.93;;;0.90;99.90;;;;;;5027781;28;21091;-49
2021/12/12 05:58:42;;;;;;;31.23;22.50;;;0.90;99.90;;;;;;5032022;28;20480;-50
2021/12/12 06:01:11;;;;;;;29.30;20.80;;;0.90;99.90;;;;;;5036819;28;20545;-50
2021/12/12 06:03:40;;;;;;;31.30;22.53;;;0.90;99.90;;;;;;5023485;28;20517;-49
2021/12/12 06:06:09;;;;;;;40.17;22.17;;;0.90;99.90;;;;;;5027391;28;20979;-51
2021/12/12 06:08:39;;;;;;;32.93;22.73;;;0.90;99.90;;;;;;5029653;28;20542;-48
2021/12/12 06:11:07;;;;;;;33.70;22.40;;;0.90;99.90;;;;;;5028106;28;21043;-49
2021/12/12 06:13:35;;;;;;;31.53;23.03;;;0.90;99.90;;;;;;5028247;28;20574;-50
2021/12/12 06:16:02;;;;;;;30.50;21.20;;;0.90;99.90;;;;;;5029851;28;20508;-49
2021/12/12 06:18:35;;;;;;;37.43;23.70;;;1.00;99.90;;;;;;5022222;28;21205;-50
2021/12/12 06:21:02;;;;;;;30.73;22.37;;;0.90;99.90;;;;;;5029736;28;20972;-50
2021/12/12 06:23:29;;;;;;;29.43;20.67;;;0.90;99.90;;;;;;5030686;28;20952;-49
2021/12/12 06:25:57;;;;;;;28.43;21.33;;;0.90;99.90;;;;;;5027757;28;20537;-50
2021/12/12 06:28:28;;;;;;;35.03;22.50;;;0.90;99.90;;;;;;5029392;28;20526;-49
2021/12/12 06:30:56;;;;;;;33.60;22.40;;;0.80;99.90;;;;;;5028479;28;20574;-50
2021/12/12 06:33:23;;;;;;;24.77;18.67;;;0.80;99.90;;;;;;5028554;28;20467;-50
2021/12/12 06:35:50;;;;;;;24.80;18.80;;;0.80;94.20;;;;;;5025802;28;20515;-49
2021/12/12 06:38:19;;;;;;;30.57;19.50;;;0.80;81.60;;;;;;5028753;28;21003;-50
2021/12/12 06:40:47;;;;;;;27.83;19.20;;;0.70;77.30;;;;;;5026092;28;20545;-51
2021/12/12 06:43:18;;;;;;;24.97;19.13;;;0.70;92.20;;;;;;5027772;28;20462;-50
2021/12/12 06:45:45;;;;;;;27.30;19.50;;;0.70;23.40;;;;;;5030250;28;20517;-52
2021/12/12 06:48:13;;;;;;;24.73;18.13;;;0.70;22.80;;;;;;5031332;28;20550;-53
2021/12/12 06:50:42;;;;;;;26.83;19.17;;;0.70;90.80;;;;;;5026464;28;20549;-52
2021/12/12 06:53:09;;;;;;;28.73;20.97;;;0.80;95.80;;;;;;5015827;28;20502;-52
2021/12/12 06:55:43;;;;;;;26.37;19.50;;;0.80;21.50;;;;;;5028299;28;21025;-52
2021/12/12 06:58:10;;;;;;;27.13;20.30;;;0.80;25.50;;;;;;5026433;28;21031;-50
2021/12/12 07:00:39;;;;;;;26.90;18.00;;;0.80;26.10;;;;;;5026581;28;20550;-51
2021/12/12 07:03:05;;;;;;;28.37;21.53;;;0.80;28.80;;;;;;5024260;28;21035;-51
2021/12/12 07:05:33;;;;;;;26.37;20.10;;;0.80;31.30;;;;;;5026163;28;20943;-51
2021/12/12 07:08:03;;;;;;;26.07;19.53;;;0.70;35.80;;;;;;5027962;28;20562;-53
2021/12/12 07:10:31;;;;;;;28.10;20.77;;;0.70;34.90;;;;;;5027717;28;20530;-51
2021/12/12 07:12:59;;;;;;;32.20;19.50;;;0.70;31.80;;;;;;5029343;28;20542;-50
2021/12/12 07:15:28;;;;;;;22.27;18.03;;;0.70;39.60;;;;;;5029376;28;21308;-53
2021/12/12 07:17:59;;;;;;;23.40;17.00;;;0.70;41.40;;;;;;5027665;28;20952;-51
2021/12/12 07:20:27;;;;;;;22.33;17.20;;;0.70;48.70;;;;;;5029011;28;21217;-53
2021/12/12 07:22:54;;;;;;;23.03;17.60;;;0.70;53.30;;;;;;5030045;28;20545;-51
2021/12/12 07:25:22;;;;;;;24.60;16.57;;;0.70;48.60;;;;;;5029215;28;20521;-51
2021/12/12 07:27:51;;;;;;;21.80;17.27;;;0.70;53.10;;;;;;5024737;28;20486;-53
2021/12/12 07:30:17;;;;;;;20.07;16.80;;;0.70;57.70;;;;;;5025539;28;20937;-52
2021/12/12 07:32:45;;;;;;;25.50;16.97;;;0.70;55.80;;;;;;5027397;28;20547;-51
2021/12/12 07:35:14;;;;;;;23.60;18.03;;;0.70;69.80;;;;;;5030519;28;21071;-52
2021/12/12 07:37:43;;;;;;;21.77;15.87;;;0.80;64.60;;;;;;5028511;28;20578;-51
2021/12/12 07:40:12;;;;;;;22.87;16.87;;;0.80;61.40;;;;;;5021009;28;20542;-52
2021/12/12 07:42:40;;;;;;;23.33;17.50;;;0.80;65.30;;;;;;5021802;28;20550;-51
2021/12/12 07:45:08;;;;;;;22.97;16.87;;;0.80;75.40;;;;;;5026734;28;20494;-51
2021/12/12 07:47:35;;;;;;;21.57;16.67;;;0.90;82.00;;;;;;5023194;28;20511;-53
2021/12/12 07:50:05;;;;;;;21.93;17.10;;;0.90;87.10;;;;;;5027430;28;20570;-53
2021/12/12 07:52:34;;;;;;;23.63;18.37;;;0.90;88.30;;;;;;5030167;28;20530;-53
2021/12/12 07:55:01;;;;;;;24.60;17.17;;;0.90;90.40;;;;;;5027450;28;20648;-52
2021/12/12 07:57:29;;;;;;;24.23;17.27;;;0.90;97.60;;;;;;5026578;28;20569;-52
2021/12/12 07:59:56;;;;;;;21.00;16.67;;;1.10;80.90;;;;;;5014889;28;20546;-52
2021/12/12 08:02:24;;;;;;;19.97;16.17;;;1.10;99.90;;;;;;5025575;28;21440;-52
2021/12/12 08:04:53;;;;;;;24.80;17.67;;;1.20;99.90;;;;;;5024393;28;20597;-52
2021/12/12 08:07:23;;;;;;;22.90;16.80;;;1.10;99.90;;;;;;5023359;28;20541;-51
2021/12/12 08:09:51;;;;;;;18.23;16.17;;;1.00;99.90;;;;;;5027073;28;20521;-52
2021/12/12 08:12:21;;;;;;;22.30;16.87;;;1.00;99.90;;;;;;5030063;28;20542;-52
2021/12/12 08:14:49;;;;;;;19.03;16.10;;;0.90;99.90;;;;;;5029462;28;20569;-52
2021/12/12 08:17:16;;;;;;;20.73;17.60;;;0.90;99.90;;;;;;5027876;28;21014;-51
2021/12/12 08:19:43;;;;;;;19.93;16.90;;;0.90;99.90;;;;;;5032552;28;20462;-51
2021/12/12 08:22:11;;;;;;;22.90;17.70;;;0.90;99.90;;;;;;5025631;28;20501;-51
2021/12/12 08:24:39;;;;;;;23.60;17.90;;;0.90;99.90;;;;;;5027171;28;20552;-51
2021/12/12 08:27:09;;;;;;;22.80;17.73;;;0.90;99.90;;;;;;5024538;28;20545;-53
2021/12/12 08:29:37;;;;;;;19.30;16.20;;;0.90;99.90;;;;;;5027229;28;20521;-51
2021/12/12 08:32:10;;;;;;;20.10;17.23;;;0.90;99.90;;;;;;5032442;28;21085;-52
2021/12/12 08:34:37;;;;;;;22.07;17.33;;;0.90;99.90;;;;;;5026814;28;20502;-52
2021/12/12 08:37:06;;;;;;;21.00;16.80;;;1.00;99.90;;;;;;5027191;28;20506;-51
2021/12/12 08:39:33;;;;;;;22.47;17.70;;;1.00;99.90;;;;;;5029166;28;20562;-51
2021/12/12 08:42:01;;;;;;;22.97;15.80;;;1.10;99.90;;;;;;5026532;28;21198;-52
2021/12/12 08:44:31;;;;;;;23.10;17.13;;;1.10;99.90;;;;;;5030776;28;20466;-52
2021/12/12 08:47:00;;;;;;;24.97;17.67;;;1.10;99.90;;;;;;5031735;28;20558;-51
2021/12/12 08:49:29;;;;;;;22.27;17.40;;;1.00;99.90;;;;;;5027797;28;20658;-51
2021/12/12 08:52:00;;;;;;;25.67;17.93;;;1.10;99.90;;;;;;5024238;28;20550;-53
2021/12/12 08:54:28;;;;;;;24.07;17.00;;;1.10;99.90;;;;;;5028611;28;20494;-51
2021/12/12 08:57:09;;;;;;;24.43;16.93;;;1.00;99.90;;;;;;5030533;28;20481;-51
2021/12/12 08:59:43;;;;;;;23.07;18.33;;;1.10;99.90;;;;;;5020243;28;20548;-51
2021/12/12 09:02:14;;;;;;;25.73;17.07;;;1.10;99.90;;;;;;5028608;28;20527;-51
2021/12/12 09:04:45;;;;;;;20.47;16.30;;;1.10;99.90;;;;;;5027761;28;20566;-51
2021/12/12 09:07:15;;;;;;;21.83;17.30;;;1.20;99.90;;;;;;5030734;28;21195;-51
2021/12/12 09:09:48;;;;;;;19.37;16.97;;;1.20;99.90;;;;;;5031844;28;20491;-51
2021/12/12 09:12:21;;;;;;;23.70;16.83;;;1.20;99.90;;;;;;5031138;28;20546;-52
2021/12/12 09:14:52;;;;;;;25.87;18.60;;;1.30;99.90;;;;;;5025794;28;20578;-51
2021/12/12 09:17:24;;;;;;;21.33;17.40;;;1.30;99.90;;;;;;5029399;28;20928;-51
2021/12/12 09:19:57;;;;;;;21.97;16.70;;;1.30;99.90;;;;;;5027000;28;20559;-52
2021/12/12 09:22:31;;;;;;;24.50;17.50;;;1.40;99.90;;;;;;5029619;28;21053;-53
2021/12/12 09:25:03;;;;;;;27.23;19.10;;;1.40;99.90;;;;;;5031026;28;20887;-50
2021/12/12 09:27:35;;;;;;;22.30;17.10;;;1.40;99.90;;;;;;5028344;28;20505;-53
2021/12/12 09:30:08;;;;;;;24.67;18.07;;;1.40;99.90;;;;;;5028580;28;20542;-51
2021/12/12 09:32:39;;;;;;;21.77;16.10;;;1.40;99.90;;;;;;5024954;28;20558;-52
2021/12/12 09:35:11;;;;;;;25.07;19.13;;;1.40;99.90;;;;;;5018520;28;21160;-51
2021/12/12 09:37:42;;;;;;;26.40;20.00;;;1.40;99.90;;;;;;5019525;28;20508;-51
2021/12/12 09:40:17;;;;;;;26.03;19.57;;;1.40;99.90;;;;;;5022536;28;20557;-51
2021/12/12 09:42:57;;;;;;;20.30;16.40;;;1.40;99.90;;;;;;5022308;28;20589;-51
2021/12/12 09:45:47;;;;;;;21.90;17.73;;;1.40;99.90;;;;;;5025258;28;20513;-51
2021/12/12 09:51:30;;;;;;;24.93;16.90;;;1.50;99.90;;;;;;5027390;28;20471;-52
2021/12/12 09:54:07;;;;;;;24.33;17.37;;;1.50;99.90;;;;;;5024079;28;20581;-51
2021/12/12 09:56:43;;;;;;;21.07;16.43;;;1.60;99.90;;;;;;5031979;28;20455;-51
2021/12/12 09:59:24;;;;;;;24.70;17.53;;;1.60;99.90;;;;;;5025654;28;20606;-51
2021/12/12 10:02:05;;;;;;;24.07;18.97;;;1.60;99.90;;;;;;5019902;28;20562;-51
2021/12/12 10:04:39;;;;;;;24.00;18.03;;;1.60;99.90;;;;;;5028376;28;20536;-51
2021/12/12 10:07:14;;;;;;;24.63;17.77;;;1.60;99.90;;;;;;5031753;28;21015;-51
2021/12/12 10:09:48;;;;;;;23.97;16.53;;;1.60;99.90;;;;;;5029270;28;20997;-51
2021/12/12 10:12:18;;;;;;;22.00;17.30;;;1.60;99.90;;;;;;5024511;28;21040;-52
2021/12/12 10:14:49;;;;;;;23.30;17.57;;;1.60;99.90;;;;;;5025959;28;20484;-51
2021/12/12 10:17:23;;;;;;;30.23;19.50;;;1.70;99.90;;;;;;5024446;28;20491;-52
2021/12/12 10:19:58;;;;;;;21.33;16.97;;;1.70;99.90;;;;;;5030153;28;20561;-51
2021/12/12 10:22:34;;;;;;;22.10;17.60;;;1.70;99.90;;;;;;5018085;28;21023;-50
2021/12/12 10:25:06;;;;;;;22.60;17.40;;;1.80;99.90;;;;;;5023443;28;21177;-52
2021/12/12 10:27:40;;;;;;;26.33;20.00;;;1.80;99.90;;;;;;5024211;28;20454;-51
2021/12/12 10:30:13;;;;;;;26.13;18.80;;;1.90;99.90;;;;;;5024697;28;21216;-52
2021/12/12 10:32:55;;;;;;;26.37;19.77;;;1.80;99.90;;;;;;5025351;28;20520;-50
2021/12/12 10:35:27;;;;;;;24.27;19.57;;;1.90;99.90;;;;;;5023702;28;20582;-53
2021/12/12 10:37:59;;;;;;;28.13;20.87;;;1.90;99.90;;;;;;5022019;28;20537;-52
2021/12/12 10:40:30;;;;;;;26.73;18.60;;;1.80;99.90;;;;;;5026798;28;21042;-51
2021/12/12 10:43:01;;;;;;;25.60;17.80;;;1.90;99.90;;;;;;5028664;28;20508;-52
2021/12/12 10:45:32;;;;;;;26.53;19.80;;;1.90;99.90;;;;;;5022577;28;20569;-50
2021/12/12 10:48:04;;;;;;;24.53;18.70;;;2.00;99.90;;;;;;5024667;28;20545;-51
2021/12/12 10:50:41;;;;;;;25.87;18.67;;;1.90;99.90;;;;;;5024522;28;20548;-53
2021/12/12 10:53:12;;;;;;;23.17;19.00;;;1.90;99.90;;;;;;5020730;28;20458;-50
2021/12/12 10:55:45;;;;;;;26.87;19.07;;;2.00;99.90;;;;;;5023637;28;20685;-52
2021/12/12 10:58:18;;;;;;;28.63;19.23;;;2.00;99.90;;;;;;5021153;28;20575;-52
2021/12/12 11:00:48;;;;;;;23.47;18.00;;;2.00;99.90;;;;;;5025944;28;20553;-51
2021/12/12 11:03:20;;;;;;;26.43;19.53;;;2.00;99.90;;;;;;5019361;28;20559;-52
2021/12/12 11:05:55;;;;;;;28.57;19.77;;;2.00;99.90;;;;;;5025606;28;21114;-52
2021/12/12 11:08:28;;;;;;;22.60;17.03;;;2.00;99.90;;;;;;5022410;28;20458;-52
2021/12/12 11:10:59;;;;;;;23.73;17.63;;;1.90;99.90;;;;;;5020931;28;20551;-51
2021/12/12 11:13:31;;;;;;;24.03;17.50;;;2.00;99.90;;;;;;5027669;28;20553;-52
2021/12/12 11:16:05;;;;;;;26.53;20.17;;;2.00;99.90;;;;;;5026403;28;20510;-52
2021/12/12 11:18:43;;;;;;;21.83;18.33;;;2.10;99.90;;;;;;5023927;28;20479;-52
2021/12/12 11:21:17;;;;;;;24.63;19.17;;;2.10;99.90;;;;;;5025318;28;20550;-52
2021/12/12 11:23:50;;;;;;;23.07;18.07;;;2.10;99.90;;;;;;5019784;28;20562;-52
2021/12/12 11:26:20;;;;;;;25.07;18.67;;;2.10;99.90;;;;;;5023705;28;21034;-52
2021/12/12 11:28:50;;;;;;;26.30;20.40;;;2.10;99.90;;;;;;5022926;28;20940;-52
2021/12/12 11:31:19;;;;;;;26.33;20.27;;;2.10;99.90;;;;;;5029333;28;20580;-52
2021/12/12 11:33:50;;;;;;;28.03;20.57;;;2.10;99.90;;;;;;5027614;28;20545;-53
2021/12/12 11:36:22;;;;;;;25.67;19.73;;;2.10;99.90;;;;;;5021315;28;22411;-52
2021/12/12 11:38:52;;;;;;;23.40;17.83;;;2.10;99.90;;;;;;5024705;28;20566;-53
2021/12/12 11:41:26;;;;;;;28.67;19.90;;;2.00;99.90;;;;;;5023786;28;20522;-53
2021/12/12 11:44:08;;;;;;;23.53;18.33;;;2.10;99.30;;;;;;5030055;28;20799;-53
2021/12/12 11:46:38;;;;;;;25.87;20.00;;;2.10;88.10;;;;;;5020795;28;20709;-52
2021/12/12 11:49:12;;;;;;;28.60;18.77;;;2.10;80.00;;;;;;5028621;28;20543;-52
2021/12/12 11:51:42;;;;;;;28.40;19.70;;;2.10;87.60;;;;;;5023781;28;20555;-53
2021/12/12 11:54:29;;;;;;;24.97;19.70;;;2.20;80.50;;;;;;5027522;28;20459;-52
2021/12/12 11:57:03;;;;;;;26.10;18.30;;;2.30;77.50;;;;;;5028602;28;20465;-52
2021/12/12 11:59:39;;;;;;;27.30;20.50;;;2.20;85.80;;;;;;5031577;28;20569;-51
2021/12/12 12:02:32;;;;;;;27.33;19.70;;;2.30;82.70;;;;;;5024265;28;20807;-52
2021/12/12 12:05:07;;;;;;;24.60;19.07;;;2.40;80.20;;;;;;5020569;28;20908;-52
2021/12/12 12:07:46;;;;;;;26.33;19.90;;;2.40;76.30;;;;;;5030905;28;20535;-53
2021/12/12 12:10:18;;;;;;;26.97;19.00;;;2.50;72.20;;;;;;5029403;28;20470;-53
2021/12/12 12:13:05;;;;;;;24.13;19.33;;;2.60;71.30;;;;;;5020182;28;20577;-52
2021/12/12 12:15:47;;;;;;;26.27;19.30;;;2.60;84.50;;;;;;5024105;28;20482;-52
2021/12/12 12:18:29;;;;;;;22.87;18.57;;;2.50;91.60;;;;;;5027161;28;21058;-52
2021/12/12 12:21:07;;;;;;;23.97;19.33;;;2.60;79.80;;;;;;5029252;28;20579;-52
2021/12/12 12:23:59;;;;;;;23.57;19.17;;;2.60;79.10;;;;;;5030379;28;20462;-53
2021/12/12 12:30:04;;;;;;;24.97;20.23;;;2.50;94.40;;;;;;5031461;28;20450;-52
2021/12/12 12:33:23;;;;;;;27.53;19.57;;;2.60;78.80;;;;;;5027935;28;20469;-53
2021/12/12 12:36:27;;;;;;;25.77;21.20;;;2.70;80.40;;;;;;5025390;28;20561;-52
2021/12/12 12:39:40;;;;;;;27.50;18.70;;;2.70;83.10;;;;;;5025508;28;20608;-53
2021/12/12 12:42:42;;;;;;;28.43;20.63;;;2.70;86.70;;;;;;5028077;28;20541;-52
2021/12/12 12:45:42;;;;;;;26.17;19.40;;;2.70;91.00;;;;;;5027503;28;20482;-52
2021/12/12 12:48:46;;;;;;;26.00;19.27;;;2.70;97.80;;;;;;5028073;28;20557;-52
2021/12/12 12:51:22;;;;;;;25.83;19.23;;;2.60;96.30;;;;;;5029545;28;20556;-52
2021/12/12 12:54:26;;;;;;;24.20;18.37;;;2.60;85.10;;;;;;5031540;28;20545;-51
2021/12/12 12:57:21;;;;;;;22.93;19.00;;;2.50;82.10;;;;;;5028903;28;20541;-52
2021/12/12 12:59:57;;;;;;;23.83;18.13;;;2.60;76.70;;;;;;5029327;28;20489;-52
2021/12/12 13:02:31;;;;;;;23.77;18.40;;;2.50;73.20;;;;;;5030425;28;20462;-53
2021/12/12 13:05:48;;;;;;;27.50;18.83;;;2.40;74.00;;;;;;5029288;28;20566;-52
2021/12/12 13:09:04;;;;;;;28.27;19.80;;;2.40;67.30;;;;;;5030163;28;20534;-52
2021/12/12 13:11:37;;;;;;;22.50;19.03;;;2.40;49.60;;;;;;5029668;28;20900;-53
2021/12/12 13:14:18;;;;;;;25.53;19.87;;;2.40;51.10;;;;;;5029210;28;20463;-52
2021/12/12 13:16:48;;;;;;;26.10;17.97;;;2.40;51.00;;;;;;5021573;28;20495;-52
2021/12/12 13:19:27;;;;;;;24.73;19.30;;;2.40;42.50;;;;;;5018933;28;20862;-52